sensor_id;sensor_type;location;lat;lon;timestamp;P1;durP1;ratioP1;P2;durP2;ratioP2
76127;SDS011;64873;50.102;14.434;2023-01-16T00:02:03;2.92;;;1.30;;
76127;SDS011;64873;50.102;14.434;2023-01-16T00:04:28;9.50;;;1.20;;
76127;SDS011;64873;50.102;14.434;2023-01-16T00:06:54;4.15;;;1.48;;
76127;SDS011;64873;50.102;14.434;2023-01-16T00:09:19;2.28;;;1.20;;
76127;SDS011;64873;50.102;14.434;2023-01-16T00:11:45;3.60;;;1.33;;
76127;SDS011;64873;50.102;14.434;2023-01-16T00:14:10;4.28;;;1.33;;
76127;SDS011;64873;50.102;14.434;2023-01-16T00:16:36;5.43;;;1.50;;
76127;SDS011;64873;50.102;14.434;2023-01-16T00:19:01;4.55;;;1.38;;
76127;SDS011;64873;50.102;14.434;2023-01-16T00:21:27;3.15;;;1.10;;
76127;SDS011;64873;50.102;14.434;2023-01-16T00:23:53;4.18;;;1.58;;
76127;SDS011;64873;50.102;14.434;2023-01-16T00:26:20;3.17;;;1.10;;
76127;SDS011;64873;50.102;14.434;2023-01-16T00:28:46;3.38;;;1.10;;
76127;SDS011;64873;50.102;14.434;2023-01-16T00:31:11;3.97;;;1.30;;
76127;SDS011;64873;50.102;14.434;2023-01-16T00:33:37;2.95;;;1.35;;
76127;SDS011;64873;50.102;14.434;2023-01-16T00:36:02;4.80;;;1.30;;
76127;SDS011;64873;50.102;14.434;2023-01-16T00:38:28;2.72;;;1.30;;
76127;SDS011;64873;50.102;14.434;2023-01-16T00:40:55;3.78;;;1.33;;
76127;SDS011;64873;50.102;14.434;2023-01-16T00:43:20;4.95;;;1.30;;
76127;SDS011;64873;50.102;14.434;2023-01-16T00:45:46;2.85;;;1.10;;
76127;SDS011;64873;50.102;14.434;2023-01-16T00:48:12;2.92;;;1.10;;
76127;SDS011;64873;50.102;14.434;2023-01-16T00:50:38;4.30;;;1.40;;
76127;SDS011;64873;50.102;14.434;2023-01-16T00:53:04;3.40;;;1.40;;
76127;SDS011;64873;50.102;14.434;2023-01-16T00:55:32;4.20;;;1.40;;
76127;SDS011;64873;50.102;14.434;2023-01-16T00:57:58;5.70;;;1.50;;
76127;SDS011;64873;50.102;14.434;2023-01-16T01:00:24;4.05;;;1.42;;
76127;SDS011;64873;50.102;14.434;2023-01-16T01:02:50;5.03;;;1.42;;
76127;SDS011;64873;50.102;14.434;2023-01-16T01:05:16;6.85;;;1.60;;
76127;SDS011;64873;50.102;14.434;2023-01-16T01:07:42;3.88;;;1.20;;
76127;SDS011;64873;50.102;14.434;2023-01-16T01:10:07;1.90;;;0.98;;
76127;SDS011;64873;50.102;14.434;2023-01-16T01:12:34;4.22;;;1.20;;
76127;SDS011;64873;50.102;14.434;2023-01-16T01:14:59;3.17;;;1.25;;
76127;SDS011;64873;50.102;14.434;2023-01-16T01:17:24;5.07;;;1.55;;
76127;SDS011;64873;50.102;14.434;2023-01-16T01:19:50;3.03;;;1.35;;
76127;SDS011;64873;50.102;14.434;2023-01-16T01:22:15;4.20;;;1.40;;
76127;SDS011;64873;50.102;14.434;2023-01-16T01:24:41;6.53;;;1.60;;
76127;SDS011;64873;50.102;14.434;2023-01-16T01:27:07;4.45;;;1.65;;
76127;SDS011;64873;50.102;14.434;2023-01-16T01:29:32;6.80;;;1.73;;
76127;SDS011;64873;50.102;14.434;2023-01-16T01:31:58;7.18;;;1.45;;
76127;SDS011;64873;50.102;14.434;2023-01-16T01:34:24;4.05;;;1.80;;
76127;SDS011;64873;50.102;14.434;2023-01-16T01:36:49;4.68;;;1.52;;
76127;SDS011;64873;50.102;14.434;2023-01-16T01:39:14;3.70;;;1.60;;
76127;SDS011;64873;50.102;14.434;2023-01-16T01:41:40;4.25;;;1.75;;
76127;SDS011;64873;50.102;14.434;2023-01-16T01:47:09;2.58;;;1.30;;
76127;SDS011;64873;50.102;14.434;2023-01-16T01:49:35;4.28;;;1.52;;
76127;SDS011;64873;50.102;14.434;2023-01-16T01:52:02;7.55;;;2.25;;
76127;SDS011;64873;50.102;14.434;2023-01-16T01:54:32;4.15;;;1.42;;
76127;SDS011;64873;50.102;14.434;2023-01-16T01:57:15;5.05;;;1.40;;
76127;SDS011;64873;50.102;14.434;2023-01-16T01:59:49;4.38;;;1.50;;
76127;SDS011;64873;50.102;14.434;2023-01-16T02:02:21;3.95;;;1.50;;
76127;SDS011;64873;50.102;14.434;2023-01-16T02:04:51;2.50;;;1.27;;
76127;SDS011;64873;50.102;14.434;2023-01-16T02:07:21;3.78;;;1.33;;
76127;SDS011;64873;50.102;14.434;2023-01-16T02:09:51;4.40;;;1.50;;
76127;SDS011;64873;50.102;14.434;2023-01-16T02:12:24;6.00;;;1.60;;
76127;SDS011;64873;50.102;14.434;2023-01-16T02:14:52;2.83;;;1.02;;
76127;SDS011;64873;50.102;14.434;2023-01-16T02:17:20;3.72;;;1.52;;
76127;SDS011;64873;50.102;14.434;2023-01-16T02:33:45;3.67;;;1.52;;
76127;SDS011;64873;50.102;14.434;2023-01-16T02:42:55;2.50;;;1.20;;
76127;SDS011;64873;50.102;14.434;2023-01-16T02:51:12;6.97;;;1.45;;
76127;SDS011;64873;50.102;14.434;2023-01-16T02:53:51;4.47;;;1.35;;
76127;SDS011;64873;50.102;14.434;2023-01-16T02:56:30;5.80;;;1.38;;
76127;SDS011;64873;50.102;14.434;2023-01-16T02:59:06;5.35;;;1.30;;
76127;SDS011;64873;50.102;14.434;2023-01-16T03:01:35;3.58;;;1.40;;
76127;SDS011;64873;50.102;14.434;2023-01-16T03:14:31;2.78;;;1.20;;
76127;SDS011;64873;50.102;14.434;2023-01-16T03:17:13;4.07;;;1.45;;
76127;SDS011;64873;50.102;14.434;2023-01-16T03:27:54;3.53;;;1.27;;
76127;SDS011;64873;50.102;14.434;2023-01-16T03:30:28;3.42;;;1.05;;
76127;SDS011;64873;50.102;14.434;2023-01-16T03:33:01;2.85;;;1.25;;
76127;SDS011;64873;50.102;14.434;2023-01-16T03:38:29;3.35;;;1.13;;
76127;SDS011;64873;50.102;14.434;2023-01-16T03:40:58;2.75;;;1.20;;
76127;SDS011;64873;50.102;14.434;2023-01-16T03:43:32;3.78;;;1.20;;
76127;SDS011;64873;50.102;14.434;2023-01-16T03:48:34;6.07;;;1.17;;
76127;SDS011;64873;50.102;14.434;2023-01-16T03:51:06;3.97;;;1.23;;
76127;SDS011;64873;50.102;14.434;2023-01-16T03:53:35;2.47;;;1.05;;
76127;SDS011;64873;50.102;14.434;2023-01-16T03:56:20;2.28;;;1.00;;
76127;SDS011;64873;50.102;14.434;2023-01-16T03:58:52;3.80;;;1.20;;
76127;SDS011;64873;50.102;14.434;2023-01-16T04:01:37;2.05;;;1.00;;
76127;SDS011;64873;50.102;14.434;2023-01-16T04:10:00;3.33;;;1.30;;
76127;SDS011;64873;50.102;14.434;2023-01-16T04:12:32;2.83;;;1.13;;
76127;SDS011;64873;50.102;14.434;2023-01-16T04:15:07;2.20;;;1.10;;
76127;SDS011;64873;50.102;14.434;2023-01-16T04:17:34;2.63;;;1.15;;
76127;SDS011;64873;50.102;14.434;2023-01-16T04:20:01;2.65;;;1.10;;
76127;SDS011;64873;50.102;14.434;2023-01-16T04:22:28;3.22;;;1.20;;
76127;SDS011;64873;50.102;14.434;2023-01-16T04:24:55;3.33;;;1.13;;
76127;SDS011;64873;50.102;14.434;2023-01-16T04:27:22;3.13;;;1.20;;
76127;SDS011;64873;50.102;14.434;2023-01-16T04:29:48;2.78;;;1.50;;
76127;SDS011;64873;50.102;14.434;2023-01-16T04:32:13;3.97;;;1.45;;
76127;SDS011;64873;50.102;14.434;2023-01-16T04:34:39;5.63;;;2.22;;
76127;SDS011;64873;50.102;14.434;2023-01-16T04:37:04;7.47;;;3.30;;
76127;SDS011;64873;50.102;14.434;2023-01-16T04:39:30;6.30;;;3.08;;
76127;SDS011;64873;50.102;14.434;2023-01-16T04:41:55;9.13;;;3.45;;
76127;SDS011;64873;50.102;14.434;2023-01-16T04:44:20;4.30;;;2.55;;
76127;SDS011;64873;50.102;14.434;2023-01-16T04:46:46;4.63;;;2.00;;
76127;SDS011;64873;50.102;14.434;2023-01-16T04:49:12;4.70;;;2.00;;
76127;SDS011;64873;50.102;14.434;2023-01-16T04:51:37;2.20;;;1.50;;
76127;SDS011;64873;50.102;14.434;2023-01-16T04:54:04;5.68;;;1.63;;
76127;SDS011;64873;50.102;14.434;2023-01-16T04:56:30;3.90;;;1.40;;
76127;SDS011;64873;50.102;14.434;2023-01-16T04:58:56;4.80;;;1.27;;
76127;SDS011;64873;50.102;14.434;2023-01-16T05:01:22;3.05;;;1.30;;
76127;SDS011;64873;50.102;14.434;2023-01-16T05:03:47;3.13;;;1.30;;
76127;SDS011;64873;50.102;14.434;2023-01-16T05:06:13;5.25;;;1.65;;
76127;SDS011;64873;50.102;14.434;2023-01-16T05:08:39;5.55;;;1.30;;
76127;SDS011;64873;50.102;14.434;2023-01-16T05:11:05;3.08;;;1.10;;
76127;SDS011;64873;50.102;14.434;2023-01-16T05:13:30;4.13;;;1.30;;
76127;SDS011;64873;50.102;14.434;2023-01-16T05:15:56;2.92;;;1.10;;
76127;SDS011;64873;50.102;14.434;2023-01-16T05:18:22;3.55;;;1.20;;
76127;SDS011;64873;50.102;14.434;2023-01-16T05:20:48;5.70;;;1.52;;
76127;SDS011;64873;50.102;14.434;2023-01-16T05:23:13;2.92;;;1.08;;
76127;SDS011;64873;50.102;14.434;2023-01-16T05:25:39;2.20;;;0.98;;
76127;SDS011;64873;50.102;14.434;2023-01-16T05:28:04;6.28;;;1.88;;
76127;SDS011;64873;50.102;14.434;2023-01-16T05:30:30;4.47;;;1.58;;
76127;SDS011;64873;50.102;14.434;2023-01-16T05:32:56;4.07;;;1.33;;
76127;SDS011;64873;50.102;14.434;2023-01-16T05:35:21;2.28;;;0.93;;
76127;SDS011;64873;50.102;14.434;2023-01-16T05:37:47;5.63;;;1.67;;
76127;SDS011;64873;50.102;14.434;2023-01-16T05:40:12;4.82;;;1.20;;
76127;SDS011;64873;50.102;14.434;2023-01-16T05:42:39;3.13;;;1.10;;
76127;SDS011;64873;50.102;14.434;2023-01-16T05:45:07;6.80;;;1.30;;
76127;SDS011;64873;50.102;14.434;2023-01-16T05:47:32;8.73;;;1.58;;
76127;SDS011;64873;50.102;14.434;2023-01-16T05:49:58;3.70;;;1.15;;
76127;SDS011;64873;50.102;14.434;2023-01-16T05:52:26;3.00;;;1.20;;
76127;SDS011;64873;50.102;14.434;2023-01-16T05:54:52;7.50;;;1.50;;
76127;SDS011;64873;50.102;14.434;2023-01-16T05:57:18;3.42;;;1.05;;
76127;SDS011;64873;50.102;14.434;2023-01-16T05:59:48;4.50;;;1.40;;
76127;SDS011;64873;50.102;14.434;2023-01-16T06:02:17;3.60;;;1.08;;
76127;SDS011;64873;50.102;14.434;2023-01-16T06:04:44;3.90;;;1.23;;
76127;SDS011;64873;50.102;14.434;2023-01-16T06:07:09;2.67;;;1.05;;
76127;SDS011;64873;50.102;14.434;2023-01-16T06:09:35;6.18;;;1.20;;
76127;SDS011;64873;50.102;14.434;2023-01-16T06:12:01;2.75;;;1.02;;
76127;SDS011;64873;50.102;14.434;2023-01-16T06:14:26;4.07;;;1.20;;
76127;SDS011;64873;50.102;14.434;2023-01-16T06:16:52;3.05;;;1.00;;
76127;SDS011;64873;50.102;14.434;2023-01-16T06:19:17;2.97;;;1.05;;
76127;SDS011;64873;50.102;14.434;2023-01-16T06:21:43;4.00;;;1.25;;
76127;SDS011;64873;50.102;14.434;2023-01-16T06:24:09;4.22;;;1.30;;
76127;SDS011;64873;50.102;14.434;2023-01-16T06:26:34;4.18;;;1.17;;
76127;SDS011;64873;50.102;14.434;2023-01-16T06:29:00;4.30;;;1.60;;
76127;SDS011;64873;50.102;14.434;2023-01-16T06:31:25;4.25;;;1.00;;
76127;SDS011;64873;50.102;14.434;2023-01-16T06:33:51;3.25;;;1.08;;
76127;SDS011;64873;50.102;14.434;2023-01-16T06:36:16;2.50;;;1.10;;
76127;SDS011;64873;50.102;14.434;2023-01-16T06:38:41;3.78;;;1.10;;
76127;SDS011;64873;50.102;14.434;2023-01-16T06:41:07;5.13;;;1.13;;
76127;SDS011;64873;50.102;14.434;2023-01-16T06:43:32;3.05;;;1.15;;
76127;SDS011;64873;50.102;14.434;2023-01-16T06:45:58;1.98;;;0.90;;
76127;SDS011;64873;50.102;14.434;2023-01-16T06:48:23;2.28;;;1.48;;
76127;SDS011;64873;50.102;14.434;2023-01-16T06:50:49;6.32;;;1.33;;
76127;SDS011;64873;50.102;14.434;2023-01-16T06:53:14;4.15;;;1.30;;
76127;SDS011;64873;50.102;14.434;2023-01-16T06:55:40;7.47;;;1.02;;
76127;SDS011;64873;50.102;14.434;2023-01-16T06:58:06;6.47;;;1.45;;
76127;SDS011;64873;50.102;14.434;2023-01-16T07:00:33;3.72;;;1.58;;
76127;SDS011;64873;50.102;14.434;2023-01-16T07:02:59;2.67;;;1.23;;
76127;SDS011;64873;50.102;14.434;2023-01-16T07:05:27;5.38;;;1.30;;
76127;SDS011;64873;50.102;14.434;2023-01-16T07:07:53;6.07;;;1.38;;
76127;SDS011;64873;50.102;14.434;2023-01-16T07:10:19;5.15;;;1.58;;
76127;SDS011;64873;50.102;14.434;2023-01-16T07:12:45;7.20;;;1.70;;
76127;SDS011;64873;50.102;14.434;2023-01-16T07:15:11;4.40;;;2.10;;
76127;SDS011;64873;50.102;14.434;2023-01-16T07:17:55;4.97;;;1.40;;
76127;SDS011;64873;50.102;14.434;2023-01-16T07:20:39;3.42;;;1.50;;
76127;SDS011;64873;50.102;14.434;2023-01-16T07:23:27;5.07;;;1.30;;
76127;SDS011;64873;50.102;14.434;2023-01-16T07:25:58;1.80;;;0.98;;
76127;SDS011;64873;50.102;14.434;2023-01-16T07:28:26;4.72;;;1.63;;
76127;SDS011;64873;50.102;14.434;2023-01-16T07:30:53;4.07;;;1.48;;
76127;SDS011;64873;50.102;14.434;2023-01-16T07:33:19;8.35;;;1.58;;
76127;SDS011;64873;50.102;14.434;2023-01-16T07:35:45;5.47;;;1.60;;
76127;SDS011;64873;50.102;14.434;2023-01-16T07:38:10;5.60;;;1.63;;
76127;SDS011;64873;50.102;14.434;2023-01-16T07:40:36;3.28;;;1.67;;
76127;SDS011;64873;50.102;14.434;2023-01-16T07:43:01;3.40;;;1.40;;
76127;SDS011;64873;50.102;14.434;2023-01-16T07:45:27;5.75;;;1.80;;
76127;SDS011;64873;50.102;14.434;2023-01-16T07:47:52;3.72;;;1.35;;
76127;SDS011;64873;50.102;14.434;2023-01-16T07:50:18;5.60;;;1.40;;
76127;SDS011;64873;50.102;14.434;2023-01-16T07:52:43;4.35;;;1.48;;
76127;SDS011;64873;50.102;14.434;2023-01-16T07:55:11;6.80;;;1.60;;
76127;SDS011;64873;50.102;14.434;2023-01-16T07:57:37;6.63;;;2.25;;
76127;SDS011;64873;50.102;14.434;2023-01-16T08:00:04;2.97;;;1.48;;
76127;SDS011;64873;50.102;14.434;2023-01-16T08:02:31;3.92;;;1.65;;
76127;SDS011;64873;50.102;14.434;2023-01-16T08:04:56;3.85;;;1.63;;
76127;SDS011;64873;50.102;14.434;2023-01-16T08:07:22;7.38;;;1.48;;
76127;SDS011;64873;50.102;14.434;2023-01-16T08:09:47;6.75;;;1.45;;
76127;SDS011;64873;50.102;14.434;2023-01-16T08:12:12;6.93;;;1.45;;
76127;SDS011;64873;50.102;14.434;2023-01-16T08:14:38;7.40;;;1.65;;
76127;SDS011;64873;50.102;14.434;2023-01-16T08:17:04;6.72;;;2.40;;
76127;SDS011;64873;50.102;14.434;2023-01-16T08:19:29;6.18;;;1.75;;
76127;SDS011;64873;50.102;14.434;2023-01-16T08:21:55;4.10;;;1.38;;
76127;SDS011;64873;50.102;14.434;2023-01-16T08:24:20;8.18;;;1.88;;
76127;SDS011;64873;50.102;14.434;2023-01-16T08:26:46;6.82;;;1.58;;
76127;SDS011;64873;50.102;14.434;2023-01-16T08:29:11;7.05;;;1.80;;
76127;SDS011;64873;50.102;14.434;2023-01-16T08:31:36;5.97;;;1.83;;
76127;SDS011;64873;50.102;14.434;2023-01-16T08:34:02;6.53;;;1.77;;
76127;SDS011;64873;50.102;14.434;2023-01-16T08:36:28;4.90;;;1.73;;
76127;SDS011;64873;50.102;14.434;2023-01-16T08:38:53;3.45;;;1.60;;
76127;SDS011;64873;50.102;14.434;2023-01-16T08:41:18;6.03;;;1.85;;
76127;SDS011;64873;50.102;14.434;2023-01-16T08:44:03;4.78;;;1.55;;
76127;SDS011;64873;50.102;14.434;2023-01-16T08:47:08;12.00;;;1.65;;
76127;SDS011;64873;50.102;14.434;2023-01-16T08:49:55;7.20;;;2.05;;
76127;SDS011;64873;50.102;14.434;2023-01-16T08:52:39;6.53;;;1.77;;
76127;SDS011;64873;50.102;14.434;2023-01-16T08:55:05;5.82;;;1.58;;
76127;SDS011;64873;50.102;14.434;2023-01-16T08:57:31;2.17;;;1.27;;
76127;SDS011;64873;50.102;14.434;2023-01-16T08:59:57;4.65;;;2.00;;
76127;SDS011;64873;50.102;14.434;2023-01-16T09:02:23;5.20;;;2.05;;
76127;SDS011;64873;50.102;14.434;2023-01-16T09:04:50;4.72;;;1.70;;
76127;SDS011;64873;50.102;14.434;2023-01-16T09:07:15;6.43;;;1.58;;
76127;SDS011;64873;50.102;14.434;2023-01-16T09:09:41;6.07;;;1.98;;
76127;SDS011;64873;50.102;14.434;2023-01-16T09:12:10;5.65;;;1.80;;
76127;SDS011;64873;50.102;14.434;2023-01-16T09:14:56;7.60;;;2.40;;
76127;SDS011;64873;50.102;14.434;2023-01-16T09:17:22;5.45;;;1.80;;
76127;SDS011;64873;50.102;14.434;2023-01-16T09:19:49;5.30;;;1.98;;
76127;SDS011;64873;50.102;14.434;2023-01-16T09:22:14;4.53;;;1.80;;
76127;SDS011;64873;50.102;14.434;2023-01-16T09:24:40;7.60;;;2.13;;
76127;SDS011;64873;50.102;14.434;2023-01-16T09:27:05;6.40;;;1.98;;
76127;SDS011;64873;50.102;14.434;2023-01-16T09:29:30;5.47;;;1.92;;
76127;SDS011;64873;50.102;14.434;2023-01-16T09:31:56;7.68;;;2.13;;
76127;SDS011;64873;50.102;14.434;2023-01-16T09:34:23;4.88;;;1.90;;
76127;SDS011;64873;50.102;14.434;2023-01-16T09:36:48;7.20;;;2.33;;
76127;SDS011;64873;50.102;14.434;2023-01-16T09:39:14;5.65;;;2.13;;
76127;SDS011;64873;50.102;14.434;2023-01-16T09:41:52;7.28;;;2.15;;
76127;SDS011;64873;50.102;14.434;2023-01-16T09:44:49;6.95;;;2.00;;
76127;SDS011;64873;50.102;14.434;2023-01-16T09:47:17;5.82;;;2.13;;
76127;SDS011;64873;50.102;14.434;2023-01-16T09:52:23;5.65;;;1.85;;
76127;SDS011;64873;50.102;14.434;2023-01-16T09:55:23;4.72;;;1.70;;
76127;SDS011;64873;50.102;14.434;2023-01-16T09:58:13;16.38;;;5.30;;
76127;SDS011;64873;50.102;14.434;2023-01-16T10:01:00;6.03;;;3.55;;
76127;SDS011;64873;50.102;14.434;2023-01-16T10:03:41;7.05;;;3.25;;
76127;SDS011;64873;50.102;14.434;2023-01-16T10:11:48;6.00;;;2.33;;
76127;SDS011;64873;50.102;14.434;2023-01-16T10:22:11;8.35;;;2.10;;
76127;SDS011;64873;50.102;14.434;2023-01-16T10:30:33;6.53;;;1.90;;
76127;SDS011;64873;50.102;14.434;2023-01-16T10:35:49;7.13;;;2.15;;
76127;SDS011;64873;50.102;14.434;2023-01-16T10:41:15;6.32;;;1.70;;
76127;SDS011;64873;50.102;14.434;2023-01-16T10:44:22;3.80;;;1.70;;
76127;SDS011;64873;50.102;14.434;2023-01-16T10:47:22;5.28;;;1.60;;
76127;SDS011;64873;50.102;14.434;2023-01-16T10:50:09;5.45;;;2.05;;
76127;SDS011;64873;50.102;14.434;2023-01-16T10:52:35;5.90;;;1.73;;
76127;SDS011;64873;50.102;14.434;2023-01-16T10:55:01;9.30;;;1.98;;
76127;SDS011;64873;50.102;14.434;2023-01-16T10:57:28;3.78;;;1.95;;
76127;SDS011;64873;50.102;14.434;2023-01-16T10:59:57;9.25;;;2.63;;
76127;SDS011;64873;50.102;14.434;2023-01-16T11:02:44;7.50;;;2.20;;
76127;SDS011;64873;50.102;14.434;2023-01-16T11:05:31;4.90;;;2.00;;
76127;SDS011;64873;50.102;14.434;2023-01-16T11:08:06;8.95;;;1.92;;
76127;SDS011;64873;50.102;14.434;2023-01-16T11:10:36;6.65;;;1.90;;
76127;SDS011;64873;50.102;14.434;2023-01-16T11:13:02;5.97;;;1.88;;
76127;SDS011;64873;50.102;14.434;2023-01-16T11:16:00;7.10;;;1.50;;
76127;SDS011;64873;50.102;14.434;2023-01-16T11:18:46;5.38;;;1.80;;
76127;SDS011;64873;50.102;14.434;2023-01-16T11:21:30;5.78;;;2.03;;
76127;SDS011;64873;50.102;14.434;2023-01-16T11:24:03;5.30;;;1.83;;
76127;SDS011;64873;50.102;14.434;2023-01-16T11:26:41;3.10;;;1.10;;
76127;SDS011;64873;50.102;14.434;2023-01-16T11:29:18;5.03;;;1.30;;
76127;SDS011;64873;50.102;14.434;2023-01-16T11:31:48;3.63;;;1.20;;
76127;SDS011;64873;50.102;14.434;2023-01-16T11:34:20;6.22;;;1.23;;
76127;SDS011;64873;50.102;14.434;2023-01-16T11:36:47;5.50;;;1.20;;
76127;SDS011;64873;50.102;14.434;2023-01-16T11:39:19;3.88;;;1.05;;
76127;SDS011;64873;50.102;14.434;2023-01-16T11:41:49;4.00;;;1.30;;
76127;SDS011;64873;50.102;14.434;2023-01-16T11:44:29;4.45;;;1.30;;
76127;SDS011;64873;50.102;14.434;2023-01-16T11:47:17;2.83;;;0.98;;
76127;SDS011;64873;50.102;14.434;2023-01-16T11:49:47;5.30;;;1.40;;
76127;SDS011;64873;50.102;14.434;2023-01-16T11:52:16;7.35;;;1.52;;
76127;SDS011;64873;50.102;14.434;2023-01-16T11:55:02;2.72;;;1.30;;
76127;SDS011;64873;50.102;14.434;2023-01-16T12:14:36;1.80;;;0.80;;
76127;SDS011;64873;50.102;14.434;2023-01-16T12:28:27;2.25;;;1.10;;
76127;SDS011;64873;50.102;14.434;2023-01-16T12:55:22;2.13;;;1.10;;
76127;SDS011;64873;50.102;14.434;2023-01-16T13:00:36;2.42;;;0.98;;
76127;SDS011;64873;50.102;14.434;2023-01-16T13:05:38;2.75;;;1.00;;
76127;SDS011;64873;50.102;14.434;2023-01-16T13:08:14;2.70;;;0.93;;
76127;SDS011;64873;50.102;14.434;2023-01-16T13:10:50;3.90;;;1.00;;
76127;SDS011;64873;50.102;14.434;2023-01-16T13:13:40;2.40;;;0.82;;
76127;SDS011;64873;50.102;14.434;2023-01-16T13:19:00;3.28;;;1.20;;
76127;SDS011;64873;50.102;14.434;2023-01-16T13:21:42;5.03;;;1.27;;
76127;SDS011;64873;50.102;14.434;2023-01-16T13:24:20;5.85;;;1.30;;
76127;SDS011;64873;50.102;14.434;2023-01-16T13:26:59;1.98;;;0.93;;
76127;SDS011;64873;50.102;14.434;2023-01-16T13:29:31;1.75;;;0.85;;
76127;SDS011;64873;50.102;14.434;2023-01-16T13:32:05;1.55;;;1.00;;
76127;SDS011;64873;50.102;14.434;2023-01-16T13:34:34;4.13;;;1.60;;
76127;SDS011;64873;50.102;14.434;2023-01-16T13:42:51;1.45;;;0.82;;
76127;SDS011;64873;50.102;14.434;2023-01-16T13:45:28;4.07;;;0.90;;
76127;SDS011;64873;50.102;14.434;2023-01-16T13:48:22;1.83;;;0.80;;
76127;SDS011;64873;50.102;14.434;2023-01-16T13:50:57;3.50;;;1.38;;
76127;SDS011;64873;50.102;14.434;2023-01-16T13:53:30;3.78;;;1.30;;
76127;SDS011;64873;50.102;14.434;2023-01-16T13:56:02;4.55;;;1.00;;
76127;SDS011;64873;50.102;14.434;2023-01-16T13:58:32;2.45;;;1.02;;
76127;SDS011;64873;50.102;14.434;2023-01-16T14:01:04;4.95;;;1.15;;
76127;SDS011;64873;50.102;14.434;2023-01-16T14:03:32;2.88;;;1.20;;
76127;SDS011;64873;50.102;14.434;2023-01-16T14:08:46;4.32;;;1.30;;
76127;SDS011;64873;50.102;14.434;2023-01-16T14:11:39;2.97;;;1.40;;
76127;SDS011;64873;50.102;14.434;2023-01-16T14:17:15;5.18;;;1.30;;
76127;SDS011;64873;50.102;14.434;2023-01-16T14:20:01;3.45;;;1.48;;
76127;SDS011;64873;50.102;14.434;2023-01-16T14:22:34;2.67;;;1.27;;
76127;SDS011;64873;50.102;14.434;2023-01-16T14:25:04;4.35;;;1.20;;
76127;SDS011;64873;50.102;14.434;2023-01-16T14:27:34;3.72;;;1.58;;
76127;SDS011;64873;50.102;14.434;2023-01-16T14:30:05;3.40;;;1.10;;
76127;SDS011;64873;50.102;14.434;2023-01-16T14:32:44;3.03;;;1.20;;
76127;SDS011;64873;50.102;14.434;2023-01-16T14:35:19;1.85;;;1.05;;
76127;SDS011;64873;50.102;14.434;2023-01-16T14:38:05;2.20;;;1.08;;
76127;SDS011;64873;50.102;14.434;2023-01-16T14:40:39;4.43;;;1.05;;
76127;SDS011;64873;50.102;14.434;2023-01-16T14:47:10;2.35;;;1.25;;
76127;SDS011;64873;50.102;14.434;2023-01-16T14:50:11;4.78;;;1.15;;
76127;SDS011;64873;50.102;14.434;2023-01-16T14:56:01;3.95;;;1.25;;
76127;SDS011;64873;50.102;14.434;2023-01-16T15:01:07;2.67;;;1.20;;
76127;SDS011;64873;50.102;14.434;2023-01-16T15:03:59;3.83;;;1.15;;
76127;SDS011;64873;50.102;14.434;2023-01-16T15:06:30;4.32;;;1.65;;
76127;SDS011;64873;50.102;14.434;2023-01-16T15:09:01;2.28;;;1.23;;
76127;SDS011;64873;50.102;14.434;2023-01-16T15:11:29;5.05;;;1.95;;
76127;SDS011;64873;50.102;14.434;2023-01-16T15:14:29;5.10;;;1.73;;
76127;SDS011;64873;50.102;14.434;2023-01-16T15:20:32;3.30;;;1.38;;
76127;SDS011;64873;50.102;14.434;2023-01-16T15:22:57;3.58;;;1.20;;
76127;SDS011;64873;50.102;14.434;2023-01-16T15:28:31;5.00;;;1.73;;
76127;SDS011;64873;50.102;14.434;2023-01-16T15:31:09;4.53;;;0.90;;
76127;SDS011;64873;50.102;14.434;2023-01-16T15:33:41;2.28;;;0.85;;
76127;SDS011;64873;50.102;14.434;2023-01-16T15:38:46;2.08;;;0.90;;
76127;SDS011;64873;50.102;14.434;2023-01-16T15:41:20;2.78;;;1.10;;
76127;SDS011;64873;50.102;14.434;2023-01-16T15:44:12;5.30;;;1.10;;
76127;SDS011;64873;50.102;14.434;2023-01-16T15:52:30;6.40;;;1.35;;
76127;SDS011;64873;50.102;14.434;2023-01-16T15:54:58;6.70;;;1.10;;
76127;SDS011;64873;50.102;14.434;2023-01-16T15:57:26;2.15;;;0.90;;
76127;SDS011;64873;50.102;14.434;2023-01-16T15:59:53;3.45;;;1.50;;
76127;SDS011;64873;50.102;14.434;2023-01-16T16:02:24;2.42;;;1.20;;
76127;SDS011;64873;50.102;14.434;2023-01-16T16:05:01;4.88;;;1.20;;
76127;SDS011;64873;50.102;14.434;2023-01-16T16:07:28;3.85;;;1.40;;
76127;SDS011;64873;50.102;14.434;2023-01-16T16:09:54;3.13;;;1.23;;
76127;SDS011;64873;50.102;14.434;2023-01-16T16:12:25;3.13;;;1.52;;
76127;SDS011;64873;50.102;14.434;2023-01-16T16:15:37;4.45;;;1.40;;
76127;SDS011;64873;50.102;14.434;2023-01-16T16:18:01;2.55;;;1.20;;
76127;SDS011;64873;50.102;14.434;2023-01-16T16:20:38;2.00;;;1.00;;
76127;SDS011;64873;50.102;14.434;2023-01-16T16:25:50;2.97;;;1.20;;
76127;SDS011;64873;50.102;14.434;2023-01-16T16:28:26;3.90;;;1.25;;
76127;SDS011;64873;50.102;14.434;2023-01-16T16:31:16;3.55;;;1.50;;
76127;SDS011;64873;50.102;14.434;2023-01-16T16:36:23;2.67;;;1.30;;
76127;SDS011;64873;50.102;14.434;2023-01-16T16:38:50;3.10;;;1.15;;
76127;SDS011;64873;50.102;14.434;2023-01-16T16:43:49;2.13;;;1.13;;
76127;SDS011;64873;50.102;14.434;2023-01-16T16:48:49;3.03;;;1.52;;
76127;SDS011;64873;50.102;14.434;2023-01-16T16:51:18;4.32;;;1.73;;
76127;SDS011;64873;50.102;14.434;2023-01-16T16:53:52;5.45;;;1.90;;
76127;SDS011;64873;50.102;14.434;2023-01-16T16:56:20;3.03;;;1.60;;
76127;SDS011;64873;50.102;14.434;2023-01-16T16:58:49;2.75;;;1.65;;
76127;SDS011;64873;50.102;14.434;2023-01-16T17:01:16;2.60;;;1.38;;
76127;SDS011;64873;50.102;14.434;2023-01-16T17:03:43;3.38;;;1.48;;
76127;SDS011;64873;50.102;14.434;2023-01-16T17:06:14;2.97;;;1.52;;
76127;SDS011;64873;50.102;14.434;2023-01-16T17:08:47;3.47;;;1.50;;
76127;SDS011;64873;50.102;14.434;2023-01-16T17:11:13;3.05;;;1.60;;
76127;SDS011;64873;50.102;14.434;2023-01-16T17:13:40;4.65;;;1.42;;
76127;SDS011;64873;50.102;14.434;2023-01-16T17:16:25;3.80;;;1.75;;
76127;SDS011;64873;50.102;14.434;2023-01-16T17:18:55;7.25;;;1.55;;
76127;SDS011;64873;50.102;14.434;2023-01-16T17:21:29;3.83;;;1.33;;
76127;SDS011;64873;50.102;14.434;2023-01-16T17:23:54;3.42;;;1.42;;
76127;SDS011;64873;50.102;14.434;2023-01-16T17:26:20;3.30;;;1.38;;
76127;SDS011;64873;50.102;14.434;2023-01-16T17:28:45;4.68;;;1.58;;
76127;SDS011;64873;50.102;14.434;2023-01-16T17:31:15;4.82;;;1.90;;
76127;SDS011;64873;50.102;14.434;2023-01-16T17:33:44;4.38;;;1.75;;
76127;SDS011;64873;50.102;14.434;2023-01-16T17:36:28;4.07;;;1.80;;
76127;SDS011;64873;50.102;14.434;2023-01-16T17:38:54;3.58;;;1.98;;
76127;SDS011;64873;50.102;14.434;2023-01-16T17:41:21;4.47;;;1.80;;
76127;SDS011;64873;50.102;14.434;2023-01-16T17:43:51;3.43;;;1.87;;
76127;SDS011;64873;50.102;14.434;2023-01-16T17:46:36;6.50;;;2.17;;
76127;SDS011;64873;50.102;14.434;2023-01-16T17:49:01;4.93;;;2.38;;
76127;SDS011;64873;50.102;14.434;2023-01-16T17:51:27;7.82;;;3.42;;
76127;SDS011;64873;50.102;14.434;2023-01-16T17:53:52;6.97;;;2.80;;
76127;SDS011;64873;50.102;14.434;2023-01-16T17:56:19;9.07;;;3.47;;
76127;SDS011;64873;50.102;14.434;2023-01-16T17:58:45;9.70;;;3.65;;
76127;SDS011;64873;50.102;14.434;2023-01-16T18:01:13;4.65;;;2.60;;
76127;SDS011;64873;50.102;14.434;2023-01-16T18:03:42;7.95;;;2.80;;
76127;SDS011;64873;50.102;14.434;2023-01-16T18:06:13;6.95;;;2.92;;
76127;SDS011;64873;50.102;14.434;2023-01-16T18:08:39;7.05;;;2.70;;